Time;durP1;ratioP1;P1;durP2;ratioP2;P2;SDS_P1;SDS_P2;PMS_P1;PMS_P2;Temp;Humidity;BMP_temperature;BMP_pressure;BME280_temperature;BME280_humidity;BME280_pressure;Samples;Min_cycle;Max_cycle;Signal;HPM_P1;HPM_P2
2021/09/01 00:02:17;;;;;;;44.58;20.60;;;;;;;17.57;79.57;98777.22;5133910;27;20043;-77
2021/09/01 00:04:43;;;;;;;46.05;21.48;;;;;;;17.60;79.69;98784.03;5133202;27;20078;-80
2021/09/01 00:07:08;;;;;;;35.40;17.23;;;;;;;17.57;79.01;98782.56;5115977;27;20035;-82
2021/09/01 00:09:34;;;;;;;40.80;19.45;;;;;;;17.48;79.12;98778.31;5134770;27;20047;-80
2021/09/01 00:12:00;;;;;;;49.65;19.45;;;;;;;17.39;79.66;98774.09;5134544;27;20129;-82
2021/09/01 00:14:26;;;;;;;42.45;19.48;;;;;;;17.29;79.76;98766.34;5134140;27;20050;-78
2021/09/01 00:16:52;;;;;;;40.42;18.13;;;;;;;17.27;79.79;98766.53;5132724;27;20039;-79
2021/09/01 00:19:18;;;;;;;38.88;19.77;;;;;;;17.29;80.04;98758.34;5134145;27;20499;-78
2021/09/01 00:21:44;;;;;;;40.50;18.98;;;;;;;17.27;80.16;98757.69;5116313;27;20503;-79
2021/09/01 00:24:10;;;;;;;38.42;18.67;;;;;;;17.19;79.88;98763.97;5133957;27;20066;-77
2021/09/01 00:26:36;;;;;;;40.17;18.73;;;;;;;17.04;80.53;98765.81;5132709;27;20049;-77
2021/09/01 00:29:03;;;;;;;41.78;18.75;;;;;;;16.92;80.47;98757.38;5115421;27;20035;-81
2021/09/01 00:31:28;;;;;;;41.60;19.33;;;;;;;16.84;80.24;98752.94;5132636;27;20157;-77
2021/09/01 00:33:55;;;;;;;45.05;20.58;;;;;;;16.77;80.32;98760.00;5133042;27;20047;-82
2021/09/01 00:36:20;;;;;;;40.42;19.30;;;;;;;16.65;80.74;98748.94;5133242;27;20050;-81
2021/09/01 00:38:48;;;;;;;44.30;19.70;;;;;;;16.59;80.84;98739.81;5132455;27;20046;-79
2021/09/01 00:41:17;;;;;;;50.92;19.80;;;;;;;16.57;81.48;98741.81;5132850;27;20051;-81
2021/09/01 00:43:45;;;;;;;48.00;21.40;;;;;;;16.57;81.63;98755.16;5132734;27;20501;-81
2021/09/01 00:46:11;;;;;;;55.03;21.58;;;;;;;16.46;81.13;98785.78;5132638;27;20043;-80
2021/09/01 00:48:37;;;;;;;56.30;21.77;;;;;;;16.43;81.45;98764.78;5115236;27;20047;-80
2021/09/01 00:51:05;;;;;;;56.33;21.48;;;;;;;16.44;81.03;98750.44;5133815;27;20050;-80
2021/09/01 00:53:34;;;;;;;48.92;20.08;;;;;;;16.53;81.02;98748.53;5134148;27;20077;-81
2021/09/01 00:56:00;;;;;;;47.55;19.95;;;;;;;16.66;79.35;98750.59;5133416;27;20416;-84
2021/09/01 00:58:26;;;;;;;43.50;18.27;;;;;;;16.71;79.39;98734.88;5115426;27;20088;-81
2021/09/01 01:03:56;;;;;;;49.53;20.30;;;;;;;16.97;78.02;98723.78;5088066;28;20048;-78
2021/09/01 01:06:28;;;;;;;51.85;19.27;;;;;;;17.08;76.97;98717.13;5052440;28;20036;-78
2021/09/01 01:08:55;;;;;;;45.63;18.60;;;;;;;17.16;76.67;98712.72;5069615;28;20492;-83
2021/09/01 01:11:21;;;;;;;48.40;20.38;;;;;;;17.19;76.19;98712.38;5036217;28;20123;-78
2021/09/01 01:13:51;;;;;;;42.22;17.95;;;;;;;17.25;75.76;98704.44;5052621;28;20052;-80
2021/09/01 01:16:19;;;;;;;37.65;17.73;;;;;;;17.28;75.36;98709.41;5069523;28;20053;-82
2021/09/01 01:18:48;;;;;;;40.67;17.90;;;;;;;17.30;75.45;98709.22;5069445;28;20487;-80
2021/09/01 01:21:17;;;;;;;35.10;15.48;;;;;;;17.29;74.79;98705.69;5052780;28;20044;-79
2021/09/01 01:23:43;;;;;;;39.30;16.65;;;;;;;17.30;75.18;98703.88;5069408;28;20073;-79
2021/09/01 01:26:09;;;;;;;39.70;18.23;;;;;;;17.28;74.95;98697.88;5069118;28;20071;-75
2021/09/01 01:28:35;;;;;;;42.08;18.73;;;;;;;17.28;74.72;98695.19;5052725;28;20060;-78
2021/09/01 01:31:01;;;;;;;37.78;19.02;;;;;;;17.34;75.05;98685.63;5068631;28;20056;-79
2021/09/01 01:33:27;;;;;;;37.22;17.95;;;;;;;17.37;74.91;98674.53;5068840;28;20599;-76
2021/09/01 01:35:52;;;;;;;38.35;18.23;;;;;;;17.43;74.61;98663.09;5087924;28;20492;-76
2021/09/01 01:38:20;;;;;;;39.05;18.08;;;;;;;17.48;74.41;98659.88;5089349;28;20139;-79
2021/09/01 01:40:46;;;;;;;38.15;18.73;;;;;;;17.51;74.24;98654.13;5114867;27;20046;-76
2021/09/01 01:43:14;;;;;;;38.88;18.30;;;;;;;17.51;73.87;98654.13;5132259;27;20480;-77
2021/09/01 01:45:45;;;;;;;40.42;16.90;;;;;;;17.47;74.35;98653.72;5132532;27;20461;-80
2021/09/01 01:48:13;;;;;;;35.78;17.35;;;;;;;17.42;74.58;98650.75;5132450;27;20055;-79
2021/09/01 01:50:39;;;;;;;;;;;;;;;17.37;74.59;98650.50;5132380;27;20054;-77
2021/09/01 01:53:05;;;;;;;35.03;17.27;;;;;;;17.31;74.60;98633.38;5130963;27;19941;-80
2021/09/01 01:55:32;;;;;;;41.53;19.13;;;;;;;17.30;74.72;98632.53;5132350;27;20527;-76
2021/09/01 01:57:57;;;;;;;36.78;17.10;;;;;;;17.31;74.76;98628.03;5132036;27;20047;-82
2021/09/01 02:00:23;;;;;;;39.05;17.75;;;;;;;17.34;74.74;98618.81;5130715;27;20039;-75
2021/09/01 02:02:49;;;;;;;40.08;17.92;;;;;;;17.32;75.08;98608.31;5116356;27;20118;-78
2021/09/01 02:05:15;;;;;;;37.72;18.50;;;;;;;17.32;75.35;98605.66;5127334;27;20138;-77
2021/09/01 02:07:41;;;;;;;34.53;17.73;;;;;;;17.31;75.21;98601.31;5131899;27;20129;-76
2021/09/01 02:10:08;;;;;;;34.85;17.83;;;;;;;17.31;75.00;98598.63;5132220;27;20043;-78
2021/09/01 02:12:35;;;;;;;37.70;17.38;;;;;;;17.27;75.16;98592.84;5132291;27;20047;-80
2021/09/01 02:15:03;;;;;;;34.40;16.67;;;;;;;17.25;75.27;98576.16;5131800;27;20091;-77
2021/09/01 02:17:30;;;;;;;31.67;16.33;;;;;;;17.26;75.38;98583.16;5132029;27;20078;-76
2021/09/01 02:19:56;;;;;;;40.33;18.52;;;;;;;17.21;75.24;98582.91;5134599;27;20065;-77
2021/09/01 02:22:22;;;;;;;40.60;18.08;;;;;;;17.22;75.35;98571.19;5136472;27;20043;-76
2021/09/01 02:24:48;;;;;;;40.05;17.17;;;;;;;17.28;75.32;98581.13;5136336;27;20090;-78
2021/09/01 02:27:14;;;;;;;36.00;16.40;;;;;;;17.30;74.76;98575.59;5136408;27;20043;-81
2021/09/01 02:29:40;;;;;;;37.55;17.23;;;;;;;17.39;74.77;98568.28;5135977;27;20046;-78
2021/09/01 02:32:07;;;;;;;42.83;15.88;;;;;;;17.49;74.20;98563.44;5136896;27;20399;-83
2021/09/01 02:34:33;;;;;;;32.00;16.83;;;;;;;17.58;73.95;98565.00;5135062;27;20070;-77
2021/09/01 02:36:59;;;;;;;38.58;16.73;;;;;;;17.63;73.85;98557.22;5135690;27;20042;-77
2021/09/01 02:39:25;;;;;;;37.95;17.10;;;;;;;17.71;74.30;98563.47;5135990;27;20039;-79
2021/09/01 02:41:51;;;;;;;34.65;16.77;;;;;;;17.73;74.14;98558.72;5136215;27;20053;-77
2021/09/01 02:44:17;;;;;;;34.63;16.48;;;;;;;17.68;72.94;98567.31;5135579;27;20035;-79
2021/09/01 02:46:43;;;;;;;31.13;16.52;;;;;;;17.72;73.35;98570.44;5136254;27;20038;-77
2021/09/01 02:49:09;;;;;;;38.53;16.23;;;;;;;17.78;73.44;98575.88;5100377;27;20400;-76
2021/09/01 02:51:35;;;;;;;35.53;16.73;;;;;;;17.77;73.03;98568.03;5134513;27;20054;-80
2021/09/01 02:54:02;;;;;;;31.40;16.48;;;;;;;17.79;73.51;98563.31;5135440;27;20042;-77
2021/09/01 02:56:28;;;;;;;38.95;17.60;;;;;;;17.76;73.87;98571.72;5135746;27;20365;-78
2021/09/01 02:58:57;;;;;;;39.10;19.10;;;;;;;17.69;74.24;98576.19;5135332;27;20043;-77
2021/09/01 03:01:23;;;;;;;44.33;20.77;;;;;;;17.64;75.51;98563.38;5133982;27;20043;-77
2021/09/01 03:03:48;;;;;;;45.13;18.67;;;;;;;17.61;75.43;98553.91;5134555;27;20038;-76
2021/09/01 03:06:14;;;;;;;41.33;18.95;;;;;;;17.50;76.25;98545.56;5135086;27;20043;-78
2021/09/01 03:08:40;;;;;;;41.08;20.30;;;;;;;17.44;77.06;98547.97;5134289;27;20088;-80
2021/09/01 03:11:06;;;;;;;39.22;19.70;;;;;;;17.45;77.53;98538.13;5133097;27;20444;-80
2021/09/01 03:13:33;;;;;;;42.83;19.23;;;;;;;17.49;75.80;98536.72;5134824;27;20042;-78
2021/09/01 03:16:01;;;;;;;38.67;19.67;;;;;;;17.48;75.77;98524.34;5133394;27;20536;-81
2021/09/01 03:18:26;;;;;;;33.53;16.90;;;;;;;17.46;75.20;98523.75;5133175;27;20046;-82
2021/09/01 03:20:52;;;;;;;36.55;18.00;;;;;;;17.42;75.36;98525.13;5134909;27;20700;-82
2021/09/01 03:23:18;;;;;;;38.42;18.67;;;;;;;17.38;75.82;98531.88;5116862;27;20514;-80
2021/09/01 03:25:44;;;;;;;141.20;71.32;;;;;;;17.27;75.44;98528.69;5135268;27;20076;-80
2021/09/01 03:28:10;;;;;;;40.05;18.33;;;;;;;17.19;75.96;98528.81;5135161;27;20072;-79
2021/09/01 03:30:36;;;;;;;36.28;16.92;;;;;;;17.20;75.24;98519.78;5134712;27;20055;-80
2021/09/01 03:33:02;;;;;;;34.60;17.00;;;;;;;17.27;75.53;98522.50;5098922;27;20046;-83
2021/09/01 03:35:29;;;;;;;38.63;18.63;;;;;;;17.34;75.36;98519.91;5112949;28;20088;-80
2021/09/01 03:37:54;;;;;;;33.22;17.33;;;;;;;17.37;74.09;98520.38;5114327;28;20044;-78
2021/09/01 03:40:20;;;;;;;29.92;16.45;;;;;;;17.41;73.43;98510.94;5113339;28;20039;-81
2021/09/01 03:42:46;;;;;;;34.50;16.70;;;;;;;17.45;73.95;98508.72;5114139;28;20423;-81
2021/09/01 03:45:12;;;;;;;37.15;17.80;;;;;;;17.44;73.94;98510.53;5113776;28;20606;-79
2021/09/01 03:47:38;;;;;;;35.40;16.48;;;;;;;17.41;73.62;98499.44;5112690;28;20044;-77
2021/09/01 03:50:06;;;;;;;34.75;16.42;;;;;;;17.44;73.34;98494.50;5114536;27;20047;-80
2021/09/01 03:52:32;;;;;;;35.90;17.23;;;;;;;17.48;73.38;98492.28;5114240;28;20044;-83
2021/09/01 03:54:57;;;;;;;36.15;17.27;;;;;;;17.54;73.38;98488.84;5112936;28;20376;-85
2021/09/01 03:57:23;;;;;;;31.65;14.90;;;;;;;17.62;72.91;98491.38;5079751;28;20126;-79
2021/09/01 03:59:49;;;;;;;42.28;17.65;;;;;;;17.68;72.59;98499.66;5114908;28;20042;-81
2021/09/01 04:02:15;;;;;;;36.92;16.77;;;;;;;17.62;73.16;98504.75;5113708;28;20043;-81
2021/09/01 04:04:41;;;;;;;166.13;74.45;;;;;;;17.58;73.45;98506.16;5110200;28;20055;-82
2021/09/01 04:07:06;;;;;;;29.58;15.63;;;;;;;17.55;73.47;98503.03;5115759;28;20043;-82
2021/09/01 04:09:33;;;;;;;32.42;17.25;;;;;;;17.48;74.16;98504.81;5096834;28;20389;-82
2021/09/01 04:12:00;;;;;;;34.97;16.73;;;;;;;17.52;74.83;98512.28;5114500;28;20097;-85
2021/09/01 04:14:25;;;;;;;38.90;17.05;;;;;;;17.40;75.07;98505.78;5115378;28;20040;-81
2021/09/01 04:16:51;;;;;;;237.70;108.15;;;;;;;17.35;75.34;98501.00;5081994;28;20043;-84
2021/09/01 04:19:17;;;;;;;33.08;17.52;;;;;;;17.36;75.26;98499.16;5078812;28;20069;-80
2021/09/01 04:21:43;;;;;;;47.33;18.45;;;;;;;17.32;75.40;98495.22;5113386;28;20067;-81
2021/09/01 04:24:08;;;;;;;36.42;17.20;;;;;;;17.42;75.33;98490.38;5095852;28;20657;-80
2021/09/01 04:26:34;;;;;;;44.63;20.40;;;;;;;17.46;75.20;98486.31;5114445;28;20071;-82
2021/09/01 04:29:00;;;;;;;40.55;18.13;;;;;;;17.53;74.68;98486.34;5114089;28;20511;-82
2021/09/01 04:31:27;;;;;;;38.75;17.15;;;;;;;17.59;74.59;98481.06;5114853;28;20117;-84
2021/09/01 04:33:53;;;;;;;57.50;26.47;;;;;;;17.76;75.28;98481.59;5126190;27;20066;-82
2021/09/01 04:36:18;;;;;;;39.17;20.10;;;;;;;17.91;74.92;98478.03;5116767;27;20641;-79
2021/09/01 04:38:44;;;;;;;42.95;17.80;;;;;;;17.91;73.57;98484.19;5134491;27;20047;-81
2021/09/01 04:41:10;;;;;;;43.03;17.67;;;;;;;17.94;74.01;98477.66;5116730;27;20488;-81
2021/09/01 04:43:36;;;;;;;44.42;18.58;;;;;;;17.93;73.86;98487.50;5117952;27;20522;-86
2021/09/01 04:46:04;;;;;;;37.30;17.00;;;;;;;17.90;73.86;98473.69;5119412;27;20078;-81
2021/09/01 04:48:30;;;;;;;37.00;18.45;;;;;;;17.97;73.62;98473.75;5119791;27;20043;-82
2021/09/01 04:50:56;;;;;;;36.30;17.77;;;;;;;18.04;73.54;98466.59;5138959;27;20108;-80
2021/09/01 04:53:22;;;;;;;35.63;17.92;;;;;;;18.02;73.72;98464.13;5134183;27;20174;-80
2021/09/01 04:55:47;;;;;;;34.15;16.20;;;;;;;18.00;73.60;98470.69;5133542;27;20047;-85
2021/09/01 04:58:14;;;;;;;41.42;21.10;;;;;;;18.00;72.98;98474.19;5118321;27;20049;-82
2021/09/01 05:00:40;;;;;;;37.83;16.55;;;;;;;17.97;73.14;98460.38;5134438;27;20043;-84
2021/09/01 05:03:06;;;;;;;33.25;15.60;;;;;;;17.98;72.71;98457.53;5113365;28;20134;-81
2021/09/01 05:05:32;;;;;;;31.90;16.23;;;;;;;18.03;72.42;98454.22;5113948;28;20107;-82
2021/09/01 05:07:58;;;;;;;33.92;16.63;;;;;;;18.06;72.42;98453.84;5079543;28;20039;-85
2021/09/01 05:10:24;;;;;;;38.92;16.33;;;;;;;18.13;71.81;98443.19;5096814;28;20096;-83
2021/09/01 05:12:52;;;;;;;35.28;16.27;;;;;;;18.10;71.86;98431.84;5115803;28;20047;-87
2021/09/01 05:15:22;;;;;;;34.28;16.42;;;;;;;18.18;71.39;98430.88;5066618;28;20417;-88
2021/09/01 05:17:48;;;;;;;33.20;15.55;;;;;;;18.21;71.28;98432.31;5088507;28;20039;-87
2021/09/01 05:20:17;;;;;;;32.58;15.98;;;;;;;18.17;71.21;98425.69;5031325;28;20044;-81
2021/09/01 05:22:48;;;;;;;34.75;16.60;;;;;;;18.23;71.36;98419.53;5092577;28;20696;-81
2021/09/01 05:25:17;;;;;;;33.17;15.82;;;;;;;18.14;71.25;98431.47;5031798;28;20127;-87
2021/09/01 05:27:45;;;;;;;90.28;41.35;;;;;;;18.06;72.08;98425.25;5048284;28;20032;-82
2021/09/01 05:30:16;;;;;;;34.83;16.35;;;;;;;18.08;72.27;98422.34;5059249;28;20055;-85
2021/09/01 05:32:43;;;;;;;52.63;24.25;;;;;;;18.18;72.33;98416.66;5045692;28;20051;-82
2021/09/01 05:35:11;;;;;;;41.78;19.38;;;;;;;18.18;73.06;98430.03;5077986;28;20043;-86
2021/09/01 05:37:38;;;;;;;35.83;18.92;;;;;;;18.22;73.07;98425.94;5079087;28;20109;-86
2021/09/01 05:40:06;;;;;;;39.45;18.45;;;;;;;18.19;73.43;98423.66;5079324;28;20063;-87
2021/09/01 05:42:32;;;;;;;;;;;;;;;18.19;73.49;98416.44;5113393;28;20054;-81
2021/09/01 05:45:01;;;;;;;38.70;21.30;;;;;;;18.16;73.75;98418.72;5097532;28;20509;-81
2021/09/01 05:47:27;;;;;;;40.25;20.45;;;;;;;18.14;73.97;98402.84;5079786;28;20084;-82
2021/09/01 05:49:55;;;;;;;42.83;20.55;;;;;;;18.13;73.58;98403.03;5080824;28;20047;-81
2021/09/01 05:52:22;;;;;;;48.47;21.98;;;;;;;18.18;73.19;98395.22;5096573;28;20039;-83
2021/09/01 05:54:50;;;;;;;47.47;23.40;;;;;;;18.22;73.48;98394.66;5080421;28;20176;-85
2021/09/01 05:57:20;;;;;;;46.70;24.35;;;;;;;18.27;74.11;98386.84;5102654;28;20062;-84
2021/09/01 05:59:58;;;;;;;43.45;20.75;;;;;;;18.43;74.35;98390.19;5115522;28;20099;-86
2021/09/01 06:02:26;;;;;;;43.78;23.42;;;;;;;18.39;73.72;98384.44;5083147;27;20537;-85
2021/09/01 06:04:59;;;;;;;55.83;25.80;;;;;;;18.46;73.28;98379.06;5119920;27;20387;-81
2021/09/01 06:07:27;;;;;;;38.03;19.27;;;;;;;18.57;72.19;98367.78;5105510;28;20050;-87
2021/09/01 06:09:54;;;;;;;36.80;19.08;;;;;;;18.61;71.96;98370.06;5101472;28;20035;-81
2021/09/01 06:12:20;;;;;;;40.92;18.83;;;;;;;18.70;71.67;98371.50;5101920;28;20396;-83
2021/09/01 06:14:47;;;;;;;38.45;18.98;;;;;;;18.83;71.42;98365.34;5100637;28;20098;-83
2021/09/01 06:17:13;;;;;;;44.95;18.80;;;;;;;19.00;70.30;98363.94;5116096;28;20043;-81
2021/09/01 06:19:39;;;;;;;39.95;19.10;;;;;;;18.96;69.76;98357.34;5116219;28;20065;-81
2021/09/01 06:22:06;;;;;;;38.90;18.05;;;;;;;18.93;69.52;98357.78;5136062;28;20042;-83
2021/09/01 06:24:33;;;;;;;34.95;16.52;;;;;;;18.92;69.27;98356.13;5103402;28;20040;-83
2021/09/01 06:27:00;;;;;;;37.33;18.98;;;;;;;19.08;69.23;98342.31;5121691;28;20043;-81
2021/09/01 06:29:26;;;;;;;36.70;17.98;;;;;;;19.17;68.81;98342.91;5103522;28;20050;-84
2021/09/01 06:31:52;;;;;;;37.10;17.30;;;;;;;19.42;67.87;98344.97;5099003;28;20480;-82
2021/09/01 06:34:18;;;;;;;36.35;17.30;;;;;;;19.63;66.19;98343.88;5118247;28;20127;-83
2021/09/01 06:36:44;;;;;;;33.97;16.80;;;;;;;20.47;63.62;98341.31;5135473;28;20042;-88
2021/09/01 06:39:11;;;;;;;40.65;20.65;;;;;;;20.55;63.55;98336.69;5084472;28;20043;-85
2021/09/01 06:41:37;;;;;;;35.75;16.33;;;;;;;20.30;64.03;98340.13;5101182;28;20056;-82
2021/09/01 06:44:04;;;;;;;35.35;17.48;;;;;;;20.12;64.34;98332.81;5117663;28;20134;-82
2021/09/01 06:46:30;;;;;;;32.97;15.90;;;;;;;19.97;64.36;98330.41;5083559;28;20054;-80
2021/09/01 06:48:56;;;;;;;33.22;18.00;;;;;;;19.91;64.88;98325.88;5134789;28;20400;-82
2021/09/01 06:51:22;;;;;;;34.55;17.65;;;;;;;19.90;65.29;98326.91;5137111;28;20047;-83
2021/09/01 06:53:47;;;;;;;29.25;16.40;;;;;;;19.91;65.40;98317.81;5086630;28;20047;-87
2021/09/01 06:56:20;;;;;;;31.92;17.17;;;;;;;19.64;65.57;98320.56;5104908;28;20042;-82
2021/09/01 06:58:46;;;;;;;71.20;31.63;;;;;;;19.45;66.49;98315.06;5088608;28;20063;-82
2021/09/01 07:01:13;;;;;;;34.20;17.15;;;;;;;19.44;66.90;98320.59;5102661;28;20043;-80
2021/09/01 07:03:39;;;;;;;35.70;19.00;;;;;;;19.38;67.09;98317.72;5100565;28;20047;-81
2021/09/01 07:06:05;;;;;;;37.63;17.35;;;;;;;19.35;67.58;98315.50;5121086;28;20051;-80
2021/09/01 07:08:31;;;;;;;39.33;20.23;;;;;;;19.28;67.85;98319.19;5121278;28;20052;-82
2021/09/01 07:10:56;;;;;;;38.08;18.88;;;;;;;19.23;67.70;98320.66;5122388;28;20046;-79
2021/09/01 07:13:22;;;;;;;38.55;19.13;;;;;;;19.23;67.76;98317.97;5106593;28;20040;-81
2021/09/01 07:15:49;;;;;;;41.65;22.65;;;;;;;19.26;67.94;98307.88;5107468;28;20046;-82
2021/09/01 07:18:15;;;;;;;45.28;20.15;;;;;;;19.24;67.94;98311.56;5106651;28;20032;-82
2021/09/01 07:20:43;;;;;;;45.55;21.77;;;;;;;19.24;67.90;98303.53;5086489;28;20047;-81
2021/09/01 07:23:09;;;;;;;39.45;23.42;;;;;;;19.24;68.14;98290.13;5121051;28;20039;-83
2021/09/01 07:25:35;;;;;;;39.05;19.33;;;;;;;19.38;67.61;98290.94;5070606;28;20039;-81
2021/09/01 07:28:02;;;;;;;43.58;24.10;;;;;;;19.43;67.70;98287.63;5103869;28;20086;-82
2021/09/01 07:30:29;;;;;;;43.85;21.08;;;;;;;19.61;67.11;98278.88;5086665;28;20092;-83
2021/09/01 07:32:56;;;;;;;35.53;19.15;;;;;;;19.85;66.01;98274.72;5094198;28;20042;-82
2021/09/01 07:35:22;;;;;;;40.00;19.73;;;;;;;20.15;64.87;98276.84;5087026;28;20039;-82
2021/09/01 07:37:50;;;;;;;38.90;19.65;;;;;;;20.37;64.32;98276.50;5122211;28;20043;-82
2021/09/01 07:40:18;;;;;;;36.92;19.60;;;;;;;20.39;64.24;98277.09;5055492;28;20048;-86
2021/09/01 07:42:44;;;;;;;41.75;19.98;;;;;;;20.39;63.84;98284.31;5069784;28;20040;-85
2021/09/01 07:45:11;;;;;;;38.35;20.33;;;;;;;20.41;64.43;98276.88;5087077;28;20043;-83
2021/09/01 07:47:40;;;;;;;;;;;;;;;20.53;63.80;98277.81;5084606;28;20077;-83
2021/09/01 07:50:07;;;;;;;41.50;19.55;;;;;;;20.47;63.88;98276.84;5067916;28;19923;-84
2021/09/01 07:52:33;;;;;;;39.25;18.40;;;;;;;20.59;63.90;98282.34;5084847;28;20040;-82
2021/09/01 07:54:58;;;;;;;38.28;19.80;;;;;;;20.74;63.16;98276.66;5086795;28;20036;-82
2021/09/01 07:57:24;;;;;;;39.45;19.75;;;;;;;20.63;63.10;98270.09;5103217;28;20054;-84
2021/09/01 07:59:50;;;;;;;110.68;48.28;;;;;;;20.75;63.12;98269.41;5085957;28;20044;-83
2021/09/01 08:02:16;;;;;;;41.65;19.65;;;;;;;20.78;62.93;98267.13;5075851;27;20039;-84
2021/09/01 08:04:42;;;;;;;42.28;18.67;;;;;;;20.83;62.57;98267.28;5140699;27;20035;-82
2021/09/01 08:07:08;;;;;;;38.95;18.55;;;;;;;20.90;62.59;98263.72;5104380;27;20042;-84
2021/09/01 08:09:34;;;;;;;50.05;25.48;;;;;;;20.69;62.68;98254.97;5069654;27;20062;-83
2021/09/01 08:12:00;;;;;;;42.40;22.52;;;;;;;20.45;63.64;98256.59;5089388;27;20046;-81
2021/09/01 08:14:26;;;;;;;36.42;18.77;;;;;;;20.53;63.31;98248.28;5105179;27;20043;-86
2021/09/01 08:16:54;;;;;;;35.63;18.15;;;;;;;20.60;63.02;98249.06;5091506;27;20035;-85
2021/09/01 08:19:20;;;;;;;40.05;20.95;;;;;;;20.45;63.34;98244.00;5088731;27;20047;-83
2021/09/01 08:21:45;;;;;;;37.72;18.92;;;;;;;20.35;62.94;98251.72;5090447;27;20063;-81
2021/09/01 08:24:13;;;;;;;45.30;19.52;;;;;;;20.38;63.02;98256.66;5082086;28;20517;-83
2021/09/01 08:26:40;;;;;;;45.38;29.55;;;;;;;20.52;62.86;98236.72;5032420;28;20101;-84
2021/09/01 08:29:06;;;;;;;;;;;;;;;20.49;62.96;98242.53;5034469;28;20055;-83
2021/09/01 08:31:34;;;;;;;47.55;23.77;;;;;;;20.47;63.24;98236.56;5052354;28;19922;-81
2021/09/01 08:34:00;;;;;;;70.97;34.17;;;;;;;20.42;62.80;98247.13;5035699;28;20091;-82
2021/09/01 08:36:26;;;;;;;52.63;24.50;;;;;;;20.43;62.98;98250.63;5047655;28;20040;-82
2021/09/01 08:38:52;;;;;;;59.85;30.45;;;;;;;20.38;62.84;98262.03;5081090;28;20084;-80
2021/09/01 08:41:20;;;;;;;59.78;26.58;;;;;;;20.30;63.27;98255.06;5032367;28;20095;-85
2021/09/01 08:43:46;;;;;;;70.18;34.47;;;;;;;20.32;63.62;98257.53;5050990;28;20056;-84
2021/09/01 08:46:14;;;;;;;41.28;18.60;;;;;;;20.37;63.27;98260.38;5046833;28;20081;-83
2021/09/01 08:48:41;;;;;;;44.83;19.27;;;;;;;20.52;62.94;98254.69;5063627;28;20032;-82
2021/09/01 08:51:08;;;;;;;62.45;28.88;;;;;;;20.57;62.66;98249.47;5062594;28;20036;-82
2021/09/01 08:53:35;;;;;;;88.68;43.65;;;;;;;20.67;62.71;98254.38;5061443;28;20116;-84
2021/09/01 08:56:02;;;;;;;53.25;24.15;;;;;;;20.72;62.63;98257.25;5094370;27;20051;-82
2021/09/01 08:58:29;;;;;;;45.95;21.60;;;;;;;20.76;62.43;98246.88;5103478;27;20031;-83
2021/09/01 09:00:55;;;;;;;52.30;25.95;;;;;;;20.89;63.07;98236.03;5103008;27;20042;-83
2021/09/01 09:03:21;;;;;;;51.83;26.10;;;;;;;21.20;62.73;98230.75;5119527;27;20122;-84
2021/09/01 09:05:47;;;;;;;56.90;24.33;;;;;;;21.54;62.11;98229.34;5116200;28;20432;-79
2021/09/01 09:08:15;;;;;;;47.70;23.67;;;;;;;22.00;61.79;98224.44;5068748;28;20044;-81
2021/09/01 09:10:43;;;;;;;37.33;20.83;;;;;;;22.34;60.35;98221.25;5101138;28;20312;-82
2021/09/01 09:13:11;;;;;;;45.33;24.80;;;;;;;22.58;58.93;98230.22;5085639;28;20096;-82
2021/09/01 09:15:39;;;;;;;40.50;21.15;;;;;;;22.73;58.38;98230.59;5072124;28;20050;-83
2021/09/01 09:18:24;;;;;;;39.28;19.30;;;;;;;23.45;56.93;98228.69;5088536;28;20043;-79
2021/09/01 09:21:06;;;;;;;34.28;19.15;;;;;;;24.76;53.60;98223.53;5102702;28;20039;-82
2021/09/01 09:23:32;;;;;;;42.47;19.40;;;;;;;25.15;52.52;98228.16;5103019;28;20417;-85
2021/09/01 09:25:58;;;;;;;46.25;21.65;;;;;;;25.68;51.50;98221.28;5086380;28;20038;-86
2021/09/01 09:28:25;;;;;;;35.80;19.08;;;;;;;26.16;48.70;98210.66;5086211;28;20035;-86
2021/09/01 09:30:51;;;;;;;41.97;19.10;;;;;;;26.83;47.58;98202.28;5067508;27;20100;-85
2021/09/01 09:33:22;;;;;;;35.17;18.83;;;;;;;28.87;42.65;98207.75;5098575;28;20397;-83
2021/09/01 09:36:02;;;;;;;38.25;19.52;;;;;;;30.33;39.64;98206.00;5101035;28;20400;-83
2021/09/01 09:38:38;;;;;;;33.55;16.98;;;;;;;30.49;38.11;98204.84;5069926;28;20133;-84
2021/09/01 09:41:07;;;;;;;35.63;19.23;;;;;;;30.42;38.44;98208.94;5086634;28;20047;-82
2021/09/01 09:43:35;;;;;;;35.45;18.45;;;;;;;31.09;36.82;98211.09;5067128;28;20042;-87
2021/09/01 09:46:26;;;;;;;35.25;18.38;;;;;;;31.74;36.25;98202.41;5068520;28;20109;-88
2021/09/01 09:49:08;;;;;;;41.33;16.48;;;;;;;31.60;35.19;98201.47;5048154;28;20053;-83
2021/09/01 09:51:40;;;;;;;34.28;16.38;;;;;;;30.29;37.49;98204.94;5007831;28;20063;-82
2021/09/01 09:54:23;;;;;;;36.17;15.88;;;;;;;30.00;36.90;98208.44;5006373;28;20059;-87
2021/09/01 09:56:50;;;;;;;42.83;20.40;;;;;;;29.06;38.25;98196.28;5023493;28;20047;-83
2021/09/01 09:59:25;;;;;;;34.55;16.23;;;;;;;28.02;40.18;98205.50;5006740;28;20492;-85
2021/09/01 10:01:57;;;;;;;31.63;15.70;;;;;;;27.20;41.15;98195.97;5005148;28;20048;-84
2021/09/01 10:04:29;;;;;;;36.80;16.33;;;;;;;26.57;43.05;98199.38;5025964;28;20055;-84
2021/09/01 10:07:20;;;;;;;35.08;16.25;;;;;;;25.90;44.96;98201.44;5040552;28;20052;-80
2021/09/01 10:09:46;;;;;;;38.17;18.15;;;;;;;25.25;47.37;98212.03;5026821;28;20072;-84
2021/09/01 10:12:13;;;;;;;27.60;16.25;;;;;;;24.96;47.52;98201.38;5008291;28;20049;-84
2021/09/01 10:14:39;;;;;;;38.45;15.50;;;;;;;24.84;48.00;98200.66;5058055;28;20036;-84
2021/09/01 10:17:07;;;;;;;36.60;18.50;;;;;;;24.74;47.22;98195.09;5043762;28;20145;-82
2021/09/01 10:19:35;;;;;;;32.58;17.95;;;;;;;24.33;48.21;98190.63;5044221;28;20139;-87
2021/09/01 10:22:04;;;;;;;37.10;16.48;;;;;;;24.26;48.73;98184.56;5033050;28;20056;-85
2021/09/01 10:24:36;;;;;;;69.93;32.38;;;;;;;24.44;47.41;98177.31;5061557;28;20128;-83
2021/09/01 10:27:09;;;;;;;35.42;16.92;;;;;;;24.75;46.44;98175.91;5089784;28;20046;-86
2021/09/01 10:29:44;;;;;;;31.70;14.70;;;;;;;26.08;44.21;98159.66;5102206;28;20043;-86
2021/09/01 10:32:41;;;;;;;27.77;14.65;;;;;;;26.28;42.38;98159.03;5092857;28;20060;-82
2021/09/01 10:35:13;;;;;;;29.38;12.73;;;;;;;26.09;42.79;98160.47;5047764;28;20052;-87
2021/09/01 10:37:45;;;;;;;25.50;13.40;;;;;;;26.07;43.08;98154.47;5095710;28;20048;-85
2021/09/01 10:40:34;;;;;;;37.75;13.88;;;;;;;26.06;42.66;98150.16;5063959;28;20500;-83
2021/09/01 10:43:02;;;;;;;25.20;11.02;;;;;;;25.49;43.65;98154.97;5066529;28;20377;-81
2021/09/01 10:45:30;;;;;;;25.50;10.50;;;;;;;25.15;43.64;98158.59;5049649;28;20099;-82
2021/09/01 10:47:59;;;;;;;23.23;9.50;;;;;;;25.66;42.87;98147.56;5098854;28;20051;-84
2021/09/01 10:50:25;;;;;;;25.42;9.85;;;;;;;26.60;41.91;98157.34;5082354;28;20074;-84
2021/09/01 10:53:19;;;;;;;20.92;8.90;;;;;;;26.79;40.63;98158.59;5066307;28;20044;-83
2021/09/01 10:55:50;;;;;;;27.97;12.00;;;;;;;25.92;42.78;98165.97;5025290;28;20115;-84
2021/09/01 10:58:24;;;;;;;44.72;22.30;;;;;;;25.09;44.71;98175.03;5009056;28;20052;-83
2021/09/01 11:00:58;;;;;;;29.83;14.40;;;;;;;24.47;46.36;98187.63;5061721;28;20116;-83
2021/09/01 11:03:36;;;;;;;27.15;11.93;;;;;;;23.96;47.91;98185.69;5061115;28;20056;-83
2021/09/01 11:06:25;;;;;;;21.13;10.38;;;;;;;23.45;49.29;98190.09;5061841;28;20057;-84
2021/09/01 11:09:01;;;;;;;32.22;13.80;;;;;;;23.12;50.29;98191.56;5032230;28;20106;-86
2021/09/01 11:11:54;;;;;;;36.25;17.65;;;;;;;22.94;51.11;98188.75;5041145;28;20048;-81
2021/09/01 11:14:42;;;;;;;41.97;19.92;;;;;;;22.82;51.82;98179.00;5040685;28;20126;-84
2021/09/01 11:17:14;;;;;;;33.15;15.52;;;;;;;22.64;52.36;98180.78;5005972;28;20095;-82
2021/09/01 11:19:42;;;;;;;33.33;14.13;;;;;;;22.43;52.75;98180.31;5005943;28;20051;-83
2021/09/01 11:22:13;;;;;;;26.23;13.30;;;;;;;22.27;53.31;98181.75;5030225;28;20048;-81
2021/09/01 11:24:50;;;;;;;26.92;11.65;;;;;;;22.19;53.52;98173.19;5029264;28;20045;-82
2021/09/01 11:27:19;;;;;;;21.75;10.88;;;;;;;21.99;53.58;98179.69;5056568;28;20099;-84